sensor_id;sensor_type;location;lat;lon;timestamp;temperature;humidity
15926;DHT22;8062;53.882;10.642;2023-03-14T00:01:18;10.90;99.90
15926;DHT22;8062;53.882;10.642;2023-03-14T00:02:40;10.90;99.90
15926;DHT22;8062;53.882;10.642;2023-03-14T00:03:59;10.90;99.90
15926;DHT22;8062;53.882;10.642;2023-03-14T00:05:20;10.90;99.90
15926;DHT22;8062;53.882;10.642;2023-03-14T00:06:39;10.90;99.90
15926;DHT22;8062;53.882;10.642;2023-03-14T00:07:58;10.80;99.90
15926;DHT22;8062;53.882;10.642;2023-03-14T00:09:18;10.80;99.90
15926;DHT22;8062;53.882;10.642;2023-03-14T00:10:38;10.80;99.90
15926;DHT22;8062;53.882;10.642;2023-03-14T00:11:57;10.80;99.90
15926;DHT22;8062;53.882;10.642;2023-03-14T00:13:17;10.80;99.90
15926;DHT22;8062;53.882;10.642;2023-03-14T00:14:36;10.80;99.90
15926;DHT22;8062;53.882;10.642;2023-03-14T00:16:05;10.80;99.90
15926;DHT22;8062;53.882;10.642;2023-03-14T00:17:26;10.80;99.90
15926;DHT22;8062;53.882;10.642;2023-03-14T00:18:46;10.80;99.90
15926;DHT22;8062;53.882;10.642;2023-03-14T00:20:07;10.80;99.90
15926;DHT22;8062;53.882;10.642;2023-03-14T00:21:30;10.70;99.90
15926;DHT22;8062;53.882;10.642;2023-03-14T00:22:49;10.70;99.90
15926;DHT22;8062;53.882;10.642;2023-03-14T00:24:09;10.70;99.90
15926;DHT22;8062;53.882;10.642;2023-03-14T00:25:28;10.80;99.90
15926;DHT22;8062;53.882;10.642;2023-03-14T00:26:47;10.70;99.90
15926;DHT22;8062;53.882;10.642;2023-03-14T00:28:07;10.70;99.90
15926;DHT22;8062;53.882;10.642;2023-03-14T00:29:26;10.70;99.90
15926;DHT22;8062;53.882;10.642;2023-03-14T00:30:46;10.60;99.90
15926;DHT22;8062;53.882;10.642;2023-03-14T00:32:06;10.70;99.90
15926;DHT22;8062;53.882;10.642;2023-03-14T00:33:25;10.60;99.90
15926;DHT22;8062;53.882;10.642;2023-03-14T00:34:46;10.70;99.90
15926;DHT22;8062;53.882;10.642;2023-03-14T00:36:11;10.60;99.90
15926;DHT22;8062;53.882;10.642;2023-03-14T00:37:31;10.60;99.90
15926;DHT22;8062;53.882;10.642;2023-03-14T00:38:51;10.60;99.90
15926;DHT22;8062;53.882;10.642;2023-03-14T00:40:11;10.60;99.90
15926;DHT22;8062;53.882;10.642;2023-03-14T00:41:31;10.60;99.90
15926;DHT22;8062;53.882;10.642;2023-03-14T00:42:50;10.50;99.90
15926;DHT22;8062;53.882;10.642;2023-03-14T00:44:10;10.50;99.90
15926;DHT22;8062;53.882;10.642;2023-03-14T00:45:29;10.50;99.90
15926;DHT22;8062;53.882;10.642;2023-03-14T00:46:49;10.50;99.90
15926;DHT22;8062;53.882;10.642;2023-03-14T00:48:09;10.50;99.90
15926;DHT22;8062;53.882;10.642;2023-03-14T00:49:29;10.40;99.90
15926;DHT22;8062;53.882;10.642;2023-03-14T00:50:49;10.40;99.90
15926;DHT22;8062;53.882;10.642;2023-03-14T00:52:09;10.40;99.90
15926;DHT22;8062;53.882;10.642;2023-03-14T00:53:28;10.40;99.90
15926;DHT22;8062;53.882;10.642;2023-03-14T00:54:48;10.40;99.90
15926;DHT22;8062;53.882;10.642;2023-03-14T00:56:10;10.50;99.90
15926;DHT22;8062;53.882;10.642;2023-03-14T00:57:30;10.50;99.90
15926;DHT22;8062;53.882;10.642;2023-03-14T00:58:53;10.50;99.90
15926;DHT22;8062;53.882;10.642;2023-03-14T01:00:13;10.50;99.90
15926;DHT22;8062;53.882;10.642;2023-03-14T01:01:33;10.50;99.90
15926;DHT22;8062;53.882;10.642;2023-03-14T01:02:52;10.60;99.90
15926;DHT22;8062;53.882;10.642;2023-03-14T01:04:12;10.60;99.90
15926;DHT22;8062;53.882;10.642;2023-03-14T01:05:32;10.60;99.90
15926;DHT22;8062;53.882;10.642;2023-03-14T01:06:52;10.60;99.90
15926;DHT22;8062;53.882;10.642;2023-03-14T01:08:11;10.60;99.90
15926;DHT22;8062;53.882;10.642;2023-03-14T01:09:31;10.60;99.90
15926;DHT22;8062;53.882;10.642;2023-03-14T01:10:51;10.60;99.90
15926;DHT22;8062;53.882;10.642;2023-03-14T01:12:10;10.60;99.90
15926;DHT22;8062;53.882;10.642;2023-03-14T01:13:30;10.60;99.90
15926;DHT22;8062;53.882;10.642;2023-03-14T01:14:50;10.60;99.90
15926;DHT22;8062;53.882;10.642;2023-03-14T01:16:11;10.60;99.90
15926;DHT22;8062;53.882;10.642;2023-03-14T01:17:31;10.60;99.90
15926;DHT22;8062;53.882;10.642;2023-03-14T01:18:51;10.60;99.90
15926;DHT22;8062;53.882;10.642;2023-03-14T01:20:13;10.60;99.90
15926;DHT22;8062;53.882;10.642;2023-03-14T01:21:34;10.60;99.90
15926;DHT22;8062;53.882;10.642;2023-03-14T01:22:54;10.70;99.90
15926;DHT22;8062;53.882;10.642;2023-03-14T01:24:13;10.70;99.90
15926;DHT22;8062;53.882;10.642;2023-03-14T01:25:33;10.80;99.90
15926;DHT22;8062;53.882;10.642;2023-03-14T01:26:52;10.80;99.90
15926;DHT22;8062;53.882;10.642;2023-03-14T01:28:12;10.80;99.90
15926;DHT22;8062;53.882;10.642;2023-03-14T01:29:32;10.80;99.90
15926;DHT22;8062;53.882;10.642;2023-03-14T01:30:51;10.90;99.90
15926;DHT22;8062;53.882;10.642;2023-03-14T01:32:11;10.90;99.90
15926;DHT22;8062;53.882;10.642;2023-03-14T01:33:31;10.90;99.90
15926;DHT22;8062;53.882;10.642;2023-03-14T01:34:51;10.90;99.90
15926;DHT22;8062;53.882;10.642;2023-03-14T01:36:11;10.90;99.90
15926;DHT22;8062;53.882;10.642;2023-03-14T01:37:30;10.90;99.90
15926;DHT22;8062;53.882;10.642;2023-03-14T01:38:50;10.90;99.90
15926;DHT22;8062;53.882;10.642;2023-03-14T01:40:11;10.90;99.90
15926;DHT22;8062;53.882;10.642;2023-03-14T01:41:30;10.90;99.90
15926;DHT22;8062;53.882;10.642;2023-03-14T01:42:58;10.90;99.90
15926;DHT22;8062;53.882;10.642;2023-03-14T01:44:24;10.80;99.90
15926;DHT22;8062;53.882;10.642;2023-03-14T01:47:25;10.80;99.90
15926;DHT22;8062;53.882;10.642;2023-03-14T01:49:02;10.80;99.90
15926;DHT22;8062;53.882;10.642;2023-03-14T01:50:23;10.80;99.90
15926;DHT22;8062;53.882;10.642;2023-03-14T01:52:10;10.90;99.90
15926;DHT22;8062;53.882;10.642;2023-03-14T01:53:34;10.90;99.90
15926;DHT22;8062;53.882;10.642;2023-03-14T01:54:56;11.00;99.90
15926;DHT22;8062;53.882;10.642;2023-03-14T01:56:17;11.00;99.90
15926;DHT22;8062;53.882;10.642;2023-03-14T01:57:44;11.10;99.90
15926;DHT22;8062;53.882;10.642;2023-03-14T01:59:07;11.10;99.90
15926;DHT22;8062;53.882;10.642;2023-03-14T02:00:27;11.10;99.90
15926;DHT22;8062;53.882;10.642;2023-03-14T02:01:47;11.10;99.90
15926;DHT22;8062;53.882;10.642;2023-03-14T02:03:14;11.10;99.90
15926;DHT22;8062;53.882;10.642;2023-03-14T02:04:35;11.20;99.90
15926;DHT22;8062;53.882;10.642;2023-03-14T02:05:59;11.20;99.90
15926;DHT22;8062;53.882;10.642;2023-03-14T02:07:30;11.20;99.90
15926;DHT22;8062;53.882;10.642;2023-03-14T02:09:03;11.20;99.90
15926;DHT22;8062;53.882;10.642;2023-03-14T02:10:29;11.20;99.90
15926;DHT22;8062;53.882;10.642;2023-03-14T02:11:51;11.20;99.90
15926;DHT22;8062;53.882;10.642;2023-03-14T02:13:30;11.20;99.90
15926;DHT22;8062;53.882;10.642;2023-03-14T02:15:09;11.20;99.90
15926;DHT22;8062;53.882;10.642;2023-03-14T02:16:55;11.20;99.90
15926;DHT22;8062;53.882;10.642;2023-03-14T02:18:48;11.20;99.90
15926;DHT22;8062;53.882;10.642;2023-03-14T02:20:30;11.20;99.90
15926;DHT22;8062;53.882;10.642;2023-03-14T02:22:09;11.20;99.90
15926;DHT22;8062;53.882;10.642;2023-03-14T02:25:40;11.20;99.90
15926;DHT22;8062;53.882;10.642;2023-03-14T02:27:11;11.10;99.90
15926;DHT22;8062;53.882;10.642;2023-03-14T02:28:36;11.10;99.90
15926;DHT22;8062;53.882;10.642;2023-03-14T02:29:59;11.10;99.90
15926;DHT22;8062;53.882;10.642;2023-03-14T02:31:22;11.10;99.90
15926;DHT22;8062;53.882;10.642;2023-03-14T02:32:48;11.10;99.90
15926;DHT22;8062;53.882;10.642;2023-03-14T02:34:09;11.10;99.90
15926;DHT22;8062;53.882;10.642;2023-03-14T02:35:40;11.10;99.90
15926;DHT22;8062;53.882;10.642;2023-03-14T02:37:01;11.00;99.90
15926;DHT22;8062;53.882;10.642;2023-03-14T02:38:41;11.10;99.90
15926;DHT22;8062;53.882;10.642;2023-03-14T02:40:03;11.00;99.90
15926;DHT22;8062;53.882;10.642;2023-03-14T02:41:24;11.00;99.90
15926;DHT22;8062;53.882;10.642;2023-03-14T02:42:52;11.00;99.90
15926;DHT22;8062;53.882;10.642;2023-03-14T02:44:12;10.90;99.90
15926;DHT22;8062;53.882;10.642;2023-03-14T02:45:39;11.00;99.90
15926;DHT22;8062;53.882;10.642;2023-03-14T02:46:59;10.90;99.90
15926;DHT22;8062;53.882;10.642;2023-03-14T02:48:30;10.90;99.90
15926;DHT22;8062;53.882;10.642;2023-03-14T02:49:53;10.90;99.90
15926;DHT22;8062;53.882;10.642;2023-03-14T02:51:15;10.90;99.90
15926;DHT22;8062;53.882;10.642;2023-03-14T02:52:38;10.90;99.90
15926;DHT22;8062;53.882;10.642;2023-03-14T02:53:58;10.90;99.90
15926;DHT22;8062;53.882;10.642;2023-03-14T02:55:22;10.90;99.90
15926;DHT22;8062;53.882;10.642;2023-03-14T02:56:43;10.90;99.90
15926;DHT22;8062;53.882;10.642;2023-03-14T02:58:05;10.90;99.90
15926;DHT22;8062;53.882;10.642;2023-03-14T02:59:26;10.90;99.90
15926;DHT22;8062;53.882;10.642;2023-03-14T03:00:53;10.90;99.90
15926;DHT22;8062;53.882;10.642;2023-03-14T03:02:13;10.80;99.90
15926;DHT22;8062;53.882;10.642;2023-03-14T03:03:33;10.80;99.90
15926;DHT22;8062;53.882;10.642;2023-03-14T03:04:52;10.80;99.90
15926;DHT22;8062;53.882;10.642;2023-03-14T03:06:13;10.80;99.90
15926;DHT22;8062;53.882;10.642;2023-03-14T03:07:33;10.80;99.90
15926;DHT22;8062;53.882;10.642;2023-03-14T03:08:52;10.80;99.90
15926;DHT22;8062;53.882;10.642;2023-03-14T03:10:12;10.80;99.90
15926;DHT22;8062;53.882;10.642;2023-03-14T03:11:32;10.80;99.90
15926;DHT22;8062;53.882;10.642;2023-03-14T03:12:51;10.80;99.90
15926;DHT22;8062;53.882;10.642;2023-03-14T03:14:14;10.80;99.90
15926;DHT22;8062;53.882;10.642;2023-03-14T03:15:34;10.80;99.90
15926;DHT22;8062;53.882;10.642;2023-03-14T03:16:53;10.70;99.90
15926;DHT22;8062;53.882;10.642;2023-03-14T03:18:15;10.70;99.90
15926;DHT22;8062;53.882;10.642;2023-03-14T03:19:36;10.70;99.90
15926;DHT22;8062;53.882;10.642;2023-03-14T03:20:59;10.70;99.90
15926;DHT22;8062;53.882;10.642;2023-03-14T03:22:18;10.60;99.90
15926;DHT22;8062;53.882;10.642;2023-03-14T03:23:39;10.60;99.90
15926;DHT22;8062;53.882;10.642;2023-03-14T03:24:59;10.70;99.90
15926;DHT22;8062;53.882;10.642;2023-03-14T03:26:18;10.60;99.90
15926;DHT22;8062;53.882;10.642;2023-03-14T03:27:38;10.60;99.90
15926;DHT22;8062;53.882;10.642;2023-03-14T03:28:58;10.60;99.90
15926;DHT22;8062;53.882;10.642;2023-03-14T03:30:18;10.50;99.90
15926;DHT22;8062;53.882;10.642;2023-03-14T03:31:38;10.50;99.90
15926;DHT22;8062;53.882;10.642;2023-03-14T03:32:58;10.50;99.90
15926;DHT22;8062;53.882;10.642;2023-03-14T03:34:18;10.60;99.90
15926;DHT22;8062;53.882;10.642;2023-03-14T03:35:47;10.60;99.90
15926;DHT22;8062;53.882;10.642;2023-03-14T03:37:10;10.60;99.90
15926;DHT22;8062;53.882;10.642;2023-03-14T03:38:33;10.60;99.90
15926;DHT22;8062;53.882;10.642;2023-03-14T03:39:54;10.60;99.90
15926;DHT22;8062;53.882;10.642;2023-03-14T03:41:13;10.60;99.90
15926;DHT22;8062;53.882;10.642;2023-03-14T03:42:33;10.60;99.90
15926;DHT22;8062;53.882;10.642;2023-03-14T03:43:53;10.70;99.90
15926;DHT22;8062;53.882;10.642;2023-03-14T03:45:14;10.60;99.90
15926;DHT22;8062;53.882;10.642;2023-03-14T03:46:42;10.60;99.90
15926;DHT22;8062;53.882;10.642;2023-03-14T03:48:02;10.60;99.90
15926;DHT22;8062;53.882;10.642;2023-03-14T03:49:22;10.60;99.90
15926;DHT22;8062;53.882;10.642;2023-03-14T03:50:45;10.60;99.90
15926;DHT22;8062;53.882;10.642;2023-03-14T03:52:07;10.60;99.90
15926;DHT22;8062;53.882;10.642;2023-03-14T03:53:26;10.60;99.90
15926;DHT22;8062;53.882;10.642;2023-03-14T03:54:46;10.60;99.90
15926;DHT22;8062;53.882;10.642;2023-03-14T03:56:06;10.70;99.90
15926;DHT22;8062;53.882;10.642;2023-03-14T03:57:27;10.70;99.90
15926;DHT22;8062;53.882;10.642;2023-03-14T03:58:46;10.70;99.90
15926;DHT22;8062;53.882;10.642;2023-03-14T04:00:06;10.70;99.90
15926;DHT22;8062;53.882;10.642;2023-03-14T04:01:33;10.70;99.90
15926;DHT22;8062;53.882;10.642;2023-03-14T04:02:53;10.70;99.90
15926;DHT22;8062;53.882;10.642;2023-03-14T04:04:14;10.70;99.90
15926;DHT22;8062;53.882;10.642;2023-03-14T04:05:33;10.80;99.90
15926;DHT22;8062;53.882;10.642;2023-03-14T04:06:58;10.80;99.90
15926;DHT22;8062;53.882;10.642;2023-03-14T04:08:17;10.70;99.90
15926;DHT22;8062;53.882;10.642;2023-03-14T04:09:37;10.70;99.90
15926;DHT22;8062;53.882;10.642;2023-03-14T04:11:08;10.70;99.90
15926;DHT22;8062;53.882;10.642;2023-03-14T04:12:41;10.70;99.90
15926;DHT22;8062;53.882;10.642;2023-03-14T04:14:05;10.60;99.90
15926;DHT22;8062;53.882;10.642;2023-03-14T04:15:24;10.60;99.90
15926;DHT22;8062;53.882;10.642;2023-03-14T04:16:45;10.60;99.90
15926;DHT22;8062;53.882;10.642;2023-03-14T04:18:07;10.60;99.90
15926;DHT22;8062;53.882;10.642;2023-03-14T04:19:27;10.60;99.90
15926;DHT22;8062;53.882;10.642;2023-03-14T04:20:55;10.60;99.90
15926;DHT22;8062;53.882;10.642;2023-03-14T04:22:20;10.60;99.90
15926;DHT22;8062;53.882;10.642;2023-03-14T04:23:42;10.60;99.90
15926;DHT22;8062;53.882;10.642;2023-03-14T04:25:02;10.50;99.90
15926;DHT22;8062;53.882;10.642;2023-03-14T04:26:24;10.60;99.90
15926;DHT22;8062;53.882;10.642;2023-03-14T04:27:44;10.60;99.90
15926;DHT22;8062;53.882;10.642;2023-03-14T04:29:11;10.50;99.90
15926;DHT22;8062;53.882;10.642;2023-03-14T04:30:31;10.50;99.90
15926;DHT22;8062;53.882;10.642;2023-03-14T04:31:53;10.40;99.90
15926;DHT22;8062;53.882;10.642;2023-03-14T04:33:13;10.40;99.90
15926;DHT22;8062;53.882;10.642;2023-03-14T04:34:41;10.40;99.90
15926;DHT22;8062;53.882;10.642;2023-03-14T04:36:01;10.30;99.90
15926;DHT22;8062;53.882;10.642;2023-03-14T04:37:20;10.30;99.90
15926;DHT22;8062;53.882;10.642;2023-03-14T04:38:40;10.30;99.90
15926;DHT22;8062;53.882;10.642;2023-03-14T04:40:01;10.30;99.90
15926;DHT22;8062;53.882;10.642;2023-03-14T04:41:25;10.20;99.90
15926;DHT22;8062;53.882;10.642;2023-03-14T04:42:45;10.20;99.90
15926;DHT22;8062;53.882;10.642;2023-03-14T04:44:05;10.20;99.90
15926;DHT22;8062;53.882;10.642;2023-03-14T04:45:24;10.20;99.90
15926;DHT22;8062;53.882;10.642;2023-03-14T04:46:44;10.20;99.90
15926;DHT22;8062;53.882;10.642;2023-03-14T04:48:05;10.30;99.90
15926;DHT22;8062;53.882;10.642;2023-03-14T04:49:25;10.30;99.90
15926;DHT22;8062;53.882;10.642;2023-03-14T04:50:46;10.30;99.90
15926;DHT22;8062;53.882;10.642;2023-03-14T04:52:06;10.30;99.90
15926;DHT22;8062;53.882;10.642;2023-03-14T04:53:29;10.30;99.90
15926;DHT22;8062;53.882;10.642;2023-03-14T04:54:49;10.40;99.90
15926;DHT22;8062;53.882;10.642;2023-03-14T04:56:10;10.40;99.90
15926;DHT22;8062;53.882;10.642;2023-03-14T04:57:32;10.40;99.90
15926;DHT22;8062;53.882;10.642;2023-03-14T04:58:52;10.40;99.90
15926;DHT22;8062;53.882;10.642;2023-03-14T05:00:12;10.40;99.90
15926;DHT22;8062;53.882;10.642;2023-03-14T05:01:47;10.40;99.90
15926;DHT22;8062;53.882;10.642;2023-03-14T05:03:34;10.40;99.90
15926;DHT22;8062;53.882;10.642;2023-03-14T05:05:23;10.40;99.90
15926;DHT22;8062;53.882;10.642;2023-03-14T05:06:57;10.50;99.90
15926;DHT22;8062;53.882;10.642;2023-03-14T05:08:29;10.50;99.90
15926;DHT22;8062;53.882;10.642;2023-03-14T05:10:03;10.50;99.90
15926;DHT22;8062;53.882;10.642;2023-03-14T05:11:37;10.50;99.90
15926;DHT22;8062;53.882;10.642;2023-03-14T05:13:05;10.50;99.90
15926;DHT22;8062;53.882;10.642;2023-03-14T05:14:41;10.60;99.90
15926;DHT22;8062;53.882;10.642;2023-03-14T05:16:08;10.60;99.90
15926;DHT22;8062;53.882;10.642;2023-03-14T05:17:40;10.60;99.90
15926;DHT22;8062;53.882;10.642;2023-03-14T05:19:18;10.70;99.90
15926;DHT22;8062;53.882;10.642;2023-03-14T05:20:38;10.60;99.90
15926;DHT22;8062;53.882;10.642;2023-03-14T05:22:15;10.60;99.90
15926;DHT22;8062;53.882;10.642;2023-03-14T05:23:41;10.70;99.90
15926;DHT22;8062;53.882;10.642;2023-03-14T05:25:07;10.70;99.90
15926;DHT22;8062;53.882;10.642;2023-03-14T05:26:44;10.70;99.90
15926;DHT22;8062;53.882;10.642;2023-03-14T05:28:36;10.70;99.90
15926;DHT22;8062;53.882;10.642;2023-03-14T05:30:12;10.80;99.90
15926;DHT22;8062;53.882;10.642;2023-03-14T05:31:43;10.80;99.90
15926;DHT22;8062;53.882;10.642;2023-03-14T05:33:23;10.80;99.90
15926;DHT22;8062;53.882;10.642;2023-03-14T05:35:15;10.80;99.90
15926;DHT22;8062;53.882;10.642;2023-03-14T05:36:52;10.70;99.90
15926;DHT22;8062;53.882;10.642;2023-03-14T05:38:41;10.60;99.90
15926;DHT22;8062;53.882;10.642;2023-03-14T05:40:21;10.50;99.90
15926;DHT22;8062;53.882;10.642;2023-03-14T05:41:55;10.50;99.90
15926;DHT22;8062;53.882;10.642;2023-03-14T05:43:35;10.50;99.90
15926;DHT22;8062;53.882;10.642;2023-03-14T05:45:21;10.40;99.90
15926;DHT22;8062;53.882;10.642;2023-03-14T05:46:56;10.30;99.90
15926;DHT22;8062;53.882;10.642;2023-03-14T05:48:34;10.30;99.90
15926;DHT22;8062;53.882;10.642;2023-03-14T05:50:24;10.30;99.90
15926;DHT22;8062;53.882;10.642;2023-03-14T05:51:56;10.30;99.90
15926;DHT22;8062;53.882;10.642;2023-03-14T05:53:41;10.30;99.90
15926;DHT22;8062;53.882;10.642;2023-03-14T05:55:30;10.20;99.90
15926;DHT22;8062;53.882;10.642;2023-03-14T05:57:03;10.20;99.90
15926;DHT22;8062;53.882;10.642;2023-03-14T05:58:32;10.20;99.90
15926;DHT22;8062;53.882;10.642;2023-03-14T06:00:05;10.10;99.90
15926;DHT22;8062;53.882;10.642;2023-03-14T06:01:42;10.00;99.90
15926;DHT22;8062;53.882;10.642;2023-03-14T06:03:07;9.90;99.90
15926;DHT22;8062;53.882;10.642;2023-03-14T06:04:30;9.60;99.90
15926;DHT22;8062;53.882;10.642;2023-03-14T06:05:53;9.50;99.90
15926;DHT22;8062;53.882;10.642;2023-03-14T06:07:15;9.40;99.90
15926;DHT22;8062;53.882;10.642;2023-03-14T06:08:35;9.30;99.90
15926;DHT22;8062;53.882;10.642;2023-03-14T06:09:55;9.20;99.90
15926;DHT22;8062;53.882;10.642;2023-03-14T06:11:15;9.10;99.90
15926;DHT22;8062;53.882;10.642;2023-03-14T06:12:35;9.00;99.90
15926;DHT22;8062;53.882;10.642;2023-03-14T06:13:55;8.90;99.90
15926;DHT22;8062;53.882;10.642;2023-03-14T06:15:14;8.90;99.90
15926;DHT22;8062;53.882;10.642;2023-03-14T06:16:36;8.80;99.90
15926;DHT22;8062;53.882;10.642;2023-03-14T06:17:56;8.80;99.90
15926;DHT22;8062;53.882;10.642;2023-03-14T06:19:16;8.80;99.90
15926;DHT22;8062;53.882;10.642;2023-03-14T06:20:37;8.80;99.90
15926;DHT22;8062;53.882;10.642;2023-03-14T06:21:58;8.70;99.90
15926;DHT22;8062;53.882;10.642;2023-03-14T06:23:19;8.70;99.90
15926;DHT22;8062;53.882;10.642;2023-03-14T06:24:39;8.70;99.90
15926;DHT22;8062;53.882;10.642;2023-03-14T06:25:59;8.70;99.90
15926;DHT22;8062;53.882;10.642;2023-03-14T06:27:19;8.70;99.90
15926;DHT22;8062;53.882;10.642;2023-03-14T06:28:38;8.70;99.90
15926;DHT22;8062;53.882;10.642;2023-03-14T06:29:58;8.70;99.90
15926;DHT22;8062;53.882;10.642;2023-03-14T06:31:18;8.70;99.90
15926;DHT22;8062;53.882;10.642;2023-03-14T06:32:45;8.70;99.90
15926;DHT22;8062;53.882;10.642;2023-03-14T06:34:09;8.70;99.90
15926;DHT22;8062;53.882;10.642;2023-03-14T06:35:28;8.80;99.90
15926;DHT22;8062;53.882;10.642;2023-03-14T06:36:48;8.80;99.90
15926;DHT22;8062;53.882;10.642;2023-03-14T06:38:08;8.80;99.90
15926;DHT22;8062;53.882;10.642;2023-03-14T06:39:27;8.80;99.90
15926;DHT22;8062;53.882;10.642;2023-03-14T06:40:55;8.80;99.90
15926;DHT22;8062;53.882;10.642;2023-03-14T06:42:25;8.90;99.90
15926;DHT22;8062;53.882;10.642;2023-03-14T06:43:47;8.80;99.90
15926;DHT22;8062;53.882;10.642;2023-03-14T06:45:08;8.90;99.90
15926;DHT22;8062;53.882;10.642;2023-03-14T06:46:29;8.90;99.90
15926;DHT22;8062;53.882;10.642;2023-03-14T06:47:48;8.90;99.90
15926;DHT22;8062;53.882;10.642;2023-03-14T06:49:09;9.00;99.90
15926;DHT22;8062;53.882;10.642;2023-03-14T06:50:30;9.00;99.90
15926;DHT22;8062;53.882;10.642;2023-03-14T06:51:50;9.00;99.90
15926;DHT22;8062;53.882;10.642;2023-03-14T06:53:10;9.00;99.90
15926;DHT22;8062;53.882;10.642;2023-03-14T06:54:34;9.00;99.90
15926;DHT22;8062;53.882;10.642;2023-03-14T06:55:54;9.10;99.90
15926;DHT22;8062;53.882;10.642;2023-03-14T06:57:13;9.10;99.90
15926;DHT22;8062;53.882;10.642;2023-03-14T06:58:33;9.10;99.90
15926;DHT22;8062;53.882;10.642;2023-03-14T06:59:53;9.10;99.90
15926;DHT22;8062;53.882;10.642;2023-03-14T07:01:28;9.10;99.90
15926;DHT22;8062;53.882;10.642;2023-03-14T07:02:55;9.20;99.90
15926;DHT22;8062;53.882;10.642;2023-03-14T07:04:24;9.20;99.90
15926;DHT22;8062;53.882;10.642;2023-03-14T07:05:44;9.20;99.90
15926;DHT22;8062;53.882;10.642;2023-03-14T07:07:04;9.20;99.90
15926;DHT22;8062;53.882;10.642;2023-03-14T07:08:27;9.20;99.90
15926;DHT22;8062;53.882;10.642;2023-03-14T07:09:46;9.30;99.90
15926;DHT22;8062;53.882;10.642;2023-03-14T07:11:06;9.30;99.90
15926;DHT22;8062;53.882;10.642;2023-03-14T07:12:27;9.30;99.90
15926;DHT22;8062;53.882;10.642;2023-03-14T07:13:47;9.30;99.90
15926;DHT22;8062;53.882;10.642;2023-03-14T07:15:08;9.30;99.90
15926;DHT22;8062;53.882;10.642;2023-03-14T07:16:28;9.30;99.90
15926;DHT22;8062;53.882;10.642;2023-03-14T07:17:50;9.30;99.90
15926;DHT22;8062;53.882;10.642;2023-03-14T07:19:12;9.30;99.90
15926;DHT22;8062;53.882;10.642;2023-03-14T07:20:32;9.30;99.90
15926;DHT22;8062;53.882;10.642;2023-03-14T07:21:52;9.30;99.90
15926;DHT22;8062;53.882;10.642;2023-03-14T07:23:16;9.30;99.90
15926;DHT22;8062;53.882;10.642;2023-03-14T07:24:45;9.30;99.90
15926;DHT22;8062;53.882;10.642;2023-03-14T07:26:05;9.30;99.90
15926;DHT22;8062;53.882;10.642;2023-03-14T07:27:26;9.30;99.90
15926;DHT22;8062;53.882;10.642;2023-03-14T07:28:46;9.30;99.90
15926;DHT22;8062;53.882;10.642;2023-03-14T07:30:10;9.30;99.90
15926;DHT22;8062;53.882;10.642;2023-03-14T07:31:30;9.30;99.90
15926;DHT22;8062;53.882;10.642;2023-03-14T07:32:50;9.30;99.90
15926;DHT22;8062;53.882;10.642;2023-03-14T07:34:10;9.30;99.90
15926;DHT22;8062;53.882;10.642;2023-03-14T07:35:33;9.30;99.90
15926;DHT22;8062;53.882;10.642;2023-03-14T07:36:52;9.40;99.90
15926;DHT22;8062;53.882;10.642;2023-03-14T07:38:12;9.40;99.90
15926;DHT22;8062;53.882;10.642;2023-03-14T07:39:43;9.40;99.90
15926;DHT22;8062;53.882;10.642;2023-03-14T07:41:12;9.50;99.90
15926;DHT22;8062;53.882;10.642;2023-03-14T07:43:10;9.50;99.90
15926;DHT22;8062;53.882;10.642;2023-03-14T07:44:34;9.60;99.90
15926;DHT22;8062;53.882;10.642;2023-03-14T07:45:54;9.60;99.90
15926;DHT22;8062;53.882;10.642;2023-03-14T07:47:13;9.60;99.90
15926;DHT22;8062;53.882;10.642;2023-03-14T07:48:33;9.60;99.90
15926;DHT22;8062;53.882;10.642;2023-03-14T07:49:53;9.70;99.90
15926;DHT22;8062;53.882;10.642;2023-03-14T07:51:12;9.70;99.90
15926;DHT22;8062;53.882;10.642;2023-03-14T07:52:31;9.70;99.90
15926;DHT22;8062;53.882;10.642;2023-03-14T07:53:51;9.80;99.90
15926;DHT22;8062;53.882;10.642;2023-03-14T07:55:10;9.80;99.90
15926;DHT22;8062;53.882;10.642;2023-03-14T07:56:32;9.80;99.90
15926;DHT22;8062;53.882;10.642;2023-03-14T07:57:52;9.90;99.90
15926;DHT22;8062;53.882;10.642;2023-03-14T07:59:11;9.90;99.90
15926;DHT22;8062;53.882;10.642;2023-03-14T08:00:32;9.90;99.90
15926;DHT22;8062;53.882;10.642;2023-03-14T08:01:51;10.00;99.90
15926;DHT22;8062;53.882;10.642;2023-03-14T08:03:11;10.00;99.90
15926;DHT22;8062;53.882;10.642;2023-03-14T08:04:30;10.00;99.90
15926;DHT22;8062;53.882;10.642;2023-03-14T08:05:50;10.00;99.90
15926;DHT22;8062;53.882;10.642;2023-03-14T08:07:10;10.00;99.90
15926;DHT22;8062;53.882;10.642;2023-03-14T08:08:29;10.00;99.90
15926;DHT22;8062;53.882;10.642;2023-03-14T08:09:49;10.00;99.90
15926;DHT22;8062;53.882;10.642;2023-03-14T08:11:08;10.00;99.90
15926;DHT22;8062;53.882;10.642;2023-03-14T08:12:28;10.00;99.90
15926;DHT22;8062;53.882;10.642;2023-03-14T08:13:47;10.00;99.90
15926;DHT22;8062;53.882;10.642;2023-03-14T08:15:09;10.10;99.90
15926;DHT22;8062;53.882;10.642;2023-03-14T08:16:29;10.10;99.90
15926;DHT22;8062;53.882;10.642;2023-03-14T08:17:49;10.20;99.90
15926;DHT22;8062;53.882;10.642;2023-03-14T08:19:10;10.30;99.90
15926;DHT22;8062;53.882;10.642;2023-03-14T08:20:29;10.30;99.90
15926;DHT22;8062;53.882;10.642;2023-03-14T08:21:49;10.40;99.90
15926;DHT22;8062;53.882;10.642;2023-03-14T08:23:08;10.40;99.90
15926;DHT22;8062;53.882;10.642;2023-03-14T08:24:28;10.40;99.90
15926;DHT22;8062;53.882;10.642;2023-03-14T08:25:49;10.40;99.90
15926;DHT22;8062;53.882;10.642;2023-03-14T08:27:09;10.40;99.90
15926;DHT22;8062;53.882;10.642;2023-03-14T08:28:28;10.50;99.90
15926;DHT22;8062;53.882;10.642;2023-03-14T08:29:49;10.60;99.90
15926;DHT22;8062;53.882;10.642;2023-03-14T08:31:09;10.60;99.90
15926;DHT22;8062;53.882;10.642;2023-03-14T08:32:28;10.70;99.90
15926;DHT22;8062;53.882;10.642;2023-03-14T08:33:48;10.80;99.90
15926;DHT22;8062;53.882;10.642;2023-03-14T08:35:08;10.80;99.90
15926;DHT22;8062;53.882;10.642;2023-03-14T08:36:28;10.80;99.90
15926;DHT22;8062;53.882;10.642;2023-03-14T08:37:47;10.70;99.90
15926;DHT22;8062;53.882;10.642;2023-03-14T08:39:07;10.70;99.90
15926;DHT22;8062;53.882;10.642;2023-03-14T08:40:26;10.70;99.90
15926;DHT22;8062;53.882;10.642;2023-03-14T08:41:46;10.70;99.90
15926;DHT22;8062;53.882;10.642;2023-03-14T08:43:06;10.70;99.90
15926;DHT22;8062;53.882;10.642;2023-03-14T08:44:25;10.60;99.90
15926;DHT22;8062;53.882;10.642;2023-03-14T08:45:45;10.70;99.90
15926;DHT22;8062;53.882;10.642;2023-03-14T08:47:04;10.80;99.90
15926;DHT22;8062;53.882;10.642;2023-03-14T08:48:24;10.80;99.90
15926;DHT22;8062;53.882;10.642;2023-03-14T08:49:43;10.80;99.90
15926;DHT22;8062;53.882;10.642;2023-03-14T08:51:12;10.90;99.90
15926;DHT22;8062;53.882;10.642;2023-03-14T08:52:32;10.90;99.90
15926;DHT22;8062;53.882;10.642;2023-03-14T08:53:52;11.00;99.90